sensor_id;sensor_type;location;lat;lon;timestamp;pressure;altitude;pressure_sealevel;temperature;humidity
82305;BME280;71914;47.382;8.168;2023-09-12T00:02:04;96560.78;;;18.82;73.35
82305;BME280;71914;47.382;8.168;2023-09-12T00:04:30;96573.66;;;18.78;72.76
82305;BME280;71914;47.382;8.168;2023-09-12T00:06:56;96575.88;;;18.74;72.92
82305;BME280;71914;47.382;8.168;2023-09-12T00:09:21;96584.03;;;18.73;72.88
82305;BME280;71914;47.382;8.168;2023-09-12T00:11:48;96575.41;;;18.71;73.26
82305;BME280;71914;47.382;8.168;2023-09-12T00:14:15;96582.78;;;18.69;74.61
82305;BME280;71914;47.382;8.168;2023-09-12T00:16:40;96576.66;;;18.75;74.54
82305;BME280;71914;47.382;8.168;2023-09-12T00:19:06;96577.88;;;18.72;73.41
82305;BME280;71914;47.382;8.168;2023-09-12T00:21:31;96579.91;;;18.70;73.43
82305;BME280;71914;47.382;8.168;2023-09-12T00:23:57;96582.78;;;18.69;73.29
82305;BME280;71914;47.382;8.168;2023-09-12T00:26:22;96586.78;;;18.65;73.29
82305;BME280;71914;47.382;8.168;2023-09-12T00:28:49;96580.81;;;18.56;73.79
82305;BME280;71914;47.382;8.168;2023-09-12T00:31:15;96579.81;;;18.57;73.69
82305;BME280;71914;47.382;8.168;2023-09-12T00:33:40;96579.94;;;18.49;74.27
82305;BME280;71914;47.382;8.168;2023-09-12T00:36:06;96581.72;;;18.41;74.44
82305;BME280;71914;47.382;8.168;2023-09-12T00:38:31;96580.63;;;18.36;74.95
82305;BME280;71914;47.382;8.168;2023-09-12T00:40:57;96583.91;;;18.38;74.73
82305;BME280;71914;47.382;8.168;2023-09-12T00:43:22;96580.47;;;18.37;74.79
82305;BME280;71914;47.382;8.168;2023-09-12T00:45:50;96583.91;;;18.38;74.98
82305;BME280;71914;47.382;8.168;2023-09-12T00:48:16;96580.47;;;18.37;74.90
82305;BME280;71914;47.382;8.168;2023-09-12T00:50:43;96580.00;;;18.34;74.21
82305;BME280;71914;47.382;8.168;2023-09-12T00:53:10;96578.31;;;18.26;75.19
82305;BME280;71914;47.382;8.168;2023-09-12T00:55:37;96579.94;;;18.27;75.27
82305;BME280;71914;47.382;8.168;2023-09-12T00:58:06;96579.75;;;18.29;75.75
82305;BME280;71914;47.382;8.168;2023-09-12T01:00:33;96582.16;;;18.23;75.41
82305;BME280;71914;47.382;8.168;2023-09-12T01:03:00;96582.53;;;18.20;76.07
82305;BME280;71914;47.382;8.168;2023-09-12T01:05:26;96583.09;;;18.16;76.41
82305;BME280;71914;47.382;8.168;2023-09-12T01:07:53;96582.09;;;18.17;75.89
82305;BME280;71914;47.382;8.168;2023-09-12T01:10:19;96583.75;;;18.18;75.86
82305;BME280;71914;47.382;8.168;2023-09-12T01:12:44;96576.59;;;18.18;76.28
82305;BME280;71914;47.382;8.168;2023-09-12T01:15:10;96575.41;;;18.21;75.83
82305;BME280;71914;47.382;8.168;2023-09-12T01:17:40;96571.09;;;18.20;76.09
82305;BME280;71914;47.382;8.168;2023-09-12T01:20:11;96577.03;;;18.22;75.91
82305;BME280;71914;47.382;8.168;2023-09-12T01:23:00;96574.59;;;18.20;76.11
82305;BME280;71914;47.382;8.168;2023-09-12T01:28:23;96579.63;;;18.15;76.50
82305;BME280;71914;47.382;8.168;2023-09-12T01:30:51;96577.53;;;18.11;77.22
82305;BME280;71914;47.382;8.168;2023-09-12T01:33:17;96582.56;;;18.05;77.53
82305;BME280;71914;47.382;8.168;2023-09-12T01:35:43;96594.84;;;18.06;77.20
82305;BME280;71914;47.382;8.168;2023-09-12T01:38:09;96583.22;;;18.07;77.13
82305;BME280;71914;47.382;8.168;2023-09-12T01:40:39;96590.44;;;18.14;77.33
82305;BME280;71914;47.382;8.168;2023-09-12T01:43:08;96593.09;;;18.14;76.40
82305;BME280;71914;47.382;8.168;2023-09-12T01:45:35;96589.16;;;18.09;76.43
82305;BME280;71914;47.382;8.168;2023-09-12T01:48:03;96589.34;;;18.08;76.74
82305;BME280;71914;47.382;8.168;2023-09-12T01:50:30;96589.53;;;18.06;76.77
82305;BME280;71914;47.382;8.168;2023-09-12T01:52:56;96593.00;;;18.07;76.43
82305;BME280;71914;47.382;8.168;2023-09-12T01:55:22;96596.22;;;18.02;76.32
82305;BME280;71914;47.382;8.168;2023-09-12T01:57:49;96593.31;;;17.97;76.38
82305;BME280;71914;47.382;8.168;2023-09-12T02:00:17;96598.06;;;18.02;76.30
82305;BME280;71914;47.382;8.168;2023-09-12T02:02:44;96597.59;;;17.98;76.04
82305;BME280;71914;47.382;8.168;2023-09-12T02:05:12;96607.38;;;17.98;76.25
82305;BME280;71914;47.382;8.168;2023-09-12T02:07:42;96604.91;;;17.96;76.40
82305;BME280;71914;47.382;8.168;2023-09-12T02:10:08;96597.97;;;17.95;76.27
82305;BME280;71914;47.382;8.168;2023-09-12T02:12:35;96603.72;;;17.99;76.35
82305;BME280;71914;47.382;8.168;2023-09-12T02:15:00;96600.44;;;17.97;76.42
82305;BME280;71914;47.382;8.168;2023-09-12T02:17:26;96596.84;;;17.89;76.92
82305;BME280;71914;47.382;8.168;2023-09-12T02:19:53;96600.69;;;17.87;77.06
82305;BME280;71914;47.382;8.168;2023-09-12T02:22:18;96606.38;;;17.84;77.15
82305;BME280;71914;47.382;8.168;2023-09-12T02:24:44;96596.97;;;17.81;77.44
82305;BME280;71914;47.382;8.168;2023-09-12T02:27:09;96596.41;;;17.86;77.01
82305;BME280;71914;47.382;8.168;2023-09-12T02:29:35;96598.06;;;17.87;77.36
82305;BME280;71914;47.382;8.168;2023-09-12T02:32:01;96600.16;;;17.91;76.74
82305;BME280;71914;47.382;8.168;2023-09-12T02:34:26;96600.81;;;17.94;76.73
82305;BME280;71914;47.382;8.168;2023-09-12T02:36:53;96609.91;;;17.91;77.23
82305;BME280;71914;47.382;8.168;2023-09-12T02:39:18;96610.94;;;17.90;77.42
82305;BME280;71914;47.382;8.168;2023-09-12T02:41:44;96600.25;;;17.83;77.34
82305;BME280;71914;47.382;8.168;2023-09-12T02:44:09;96603.66;;;17.77;78.26
82305;BME280;71914;47.382;8.168;2023-09-12T02:46:36;96596.06;;;17.74;78.16
82305;BME280;71914;47.382;8.168;2023-09-12T02:49:02;96597.09;;;17.73;78.13
82305;BME280;71914;47.382;8.168;2023-09-12T02:51:28;96600.94;;;17.70;78.37
82305;BME280;71914;47.382;8.168;2023-09-12T02:53:55;96603.66;;;17.77;77.81
82305;BME280;71914;47.382;8.168;2023-09-12T02:56:20;96603.09;;;17.82;77.31
82305;BME280;71914;47.382;8.168;2023-09-12T02:58:46;96604.09;;;17.81;77.42
82305;BME280;71914;47.382;8.168;2023-09-12T03:01:14;96603.75;;;17.84;77.52
82305;BME280;71914;47.382;8.168;2023-09-12T03:03:40;96603.94;;;17.82;76.85
82305;BME280;71914;47.382;8.168;2023-09-12T03:06:05;96601.38;;;17.74;77.18
82305;BME280;71914;47.382;8.168;2023-09-12T03:08:31;96601.09;;;17.69;77.06
82305;BME280;71914;47.382;8.168;2023-09-12T03:10:58;96597.63;;;17.68;77.05
82305;BME280;71914;47.382;8.168;2023-09-12T03:13:24;96602.66;;;17.63;77.50
82305;BME280;71914;47.382;8.168;2023-09-12T03:15:50;96596.91;;;17.59;77.18
82305;BME280;71914;47.382;8.168;2023-09-12T03:18:16;96587.22;;;17.52;77.88
82305;BME280;71914;47.382;8.168;2023-09-12T03:20:42;96585.22;;;17.54;78.00
82305;BME280;71914;47.382;8.168;2023-09-12T03:23:07;96584.69;;;17.58;77.31
82305;BME280;71914;47.382;8.168;2023-09-12T03:25:35;96591.00;;;17.57;78.05
82305;BME280;71914;47.382;8.168;2023-09-12T03:28:04;96589.72;;;17.53;77.51
82305;BME280;71914;47.382;8.168;2023-09-12T03:30:30;96590.06;;;17.50;78.00
82305;BME280;71914;47.382;8.168;2023-09-12T03:32:56;96584.78;;;17.50;77.88
82305;BME280;71914;47.382;8.168;2023-09-12T03:35:21;96576.47;;;17.53;78.23
82305;BME280;71914;47.382;8.168;2023-09-12T03:37:47;96583.59;;;17.53;77.87
82305;BME280;71914;47.382;8.168;2023-09-12T03:40:12;96585.59;;;17.51;78.12
82305;BME280;71914;47.382;8.168;2023-09-12T03:42:38;96583.16;;;17.49;77.54
82305;BME280;71914;47.382;8.168;2023-09-12T03:45:06;96572.28;;;17.44;77.46
82305;BME280;71914;47.382;8.168;2023-09-12T03:47:32;96573.63;;;17.40;78.38
82305;BME280;71914;47.382;8.168;2023-09-12T03:49:57;96576.47;;;17.38;78.14
82305;BME280;71914;47.382;8.168;2023-09-12T03:52:23;96572.56;;;17.34;78.39
82305;BME280;71914;47.382;8.168;2023-09-12T03:54:48;96578.03;;;17.33;78.83
82305;BME280;71914;47.382;8.168;2023-09-12T03:57:14;96577.84;;;17.34;78.65
82305;BME280;71914;47.382;8.168;2023-09-12T03:59:39;96574.38;;;17.19;78.54
82305;BME280;71914;47.382;8.168;2023-09-12T04:02:06;96572.47;;;16.59;81.17
82305;BME280;71914;47.382;8.168;2023-09-12T04:04:32;96576.91;;;16.21;83.04
82305;BME280;71914;47.382;8.168;2023-09-12T04:06:57;96575.66;;;15.85;83.72
82305;BME280;71914;47.382;8.168;2023-09-12T04:09:23;96586.28;;;15.69;84.68
82305;BME280;71914;47.382;8.168;2023-09-12T04:11:48;96580.78;;;15.47;85.98
82305;BME280;71914;47.382;8.168;2023-09-12T04:14:14;96588.56;;;15.40;86.68
82305;BME280;71914;47.382;8.168;2023-09-12T04:16:40;96581.34;;;15.57;86.29
82305;BME280;71914;47.382;8.168;2023-09-12T04:19:07;96589.97;;;15.91;85.77
82305;BME280;71914;47.382;8.168;2023-09-12T04:21:32;96584.13;;;16.27;85.04
82305;BME280;71914;47.382;8.168;2023-09-12T04:23:58;96588.13;;;16.46;83.35
82305;BME280;71914;47.382;8.168;2023-09-12T04:26:23;96592.44;;;16.62;83.74
82305;BME280;71914;47.382;8.168;2023-09-12T04:28:49;96596.84;;;16.70;81.72
82305;BME280;71914;47.382;8.168;2023-09-12T04:31:15;96596.94;;;16.76;81.32
82305;BME280;71914;47.382;8.168;2023-09-12T04:33:40;96590.28;;;16.81;81.41
82305;BME280;71914;47.382;8.168;2023-09-12T04:36:07;96592.59;;;16.84;80.83
82305;BME280;71914;47.382;8.168;2023-09-12T04:38:33;96590.06;;;16.90;80.86
82305;BME280;71914;47.382;8.168;2023-09-12T04:41:02;96591.16;;;16.96;80.43
82305;BME280;71914;47.382;8.168;2023-09-12T04:43:30;96604.88;;;17.00;80.88
82305;BME280;71914;47.382;8.168;2023-09-12T04:45:55;96601.13;;;16.94;80.60
82305;BME280;71914;47.382;8.168;2023-09-12T04:48:21;96589.53;;;16.95;80.41
82305;BME280;71914;47.382;8.168;2023-09-12T04:50:46;96594.47;;;16.98;79.89
82305;BME280;71914;47.382;8.168;2023-09-12T04:53:13;96588.28;;;17.06;79.39
82305;BME280;71914;47.382;8.168;2023-09-12T04:55:39;96587.63;;;17.04;79.65
82305;BME280;71914;47.382;8.168;2023-09-12T04:58:05;96587.44;;;17.05;80.04
82305;BME280;71914;47.382;8.168;2023-09-12T05:00:32;96587.16;;;17.00;79.80
82305;BME280;71914;47.382;8.168;2023-09-12T05:02:58;96596.47;;;16.96;80.47
82305;BME280;71914;47.382;8.168;2023-09-12T05:05:23;96597.03;;;16.91;80.80
82305;BME280;71914;47.382;8.168;2023-09-12T05:07:49;96595.53;;;16.89;80.77
82305;BME280;71914;47.382;8.168;2023-09-12T05:10:17;96590.88;;;16.91;81.11
82305;BME280;71914;47.382;8.168;2023-09-12T05:12:46;96596.75;;;17.01;81.42
82305;BME280;71914;47.382;8.168;2023-09-12T05:15:11;96594.47;;;16.98;82.35
82305;BME280;71914;47.382;8.168;2023-09-12T05:17:37;96597.03;;;16.91;82.35
82305;BME280;71914;47.382;8.168;2023-09-12T05:20:03;96604.22;;;16.98;83.33
82305;BME280;71914;47.382;8.168;2023-09-12T05:22:30;96595.75;;;17.02;82.90
82305;BME280;71914;47.382;8.168;2023-09-12T05:24:55;96604.31;;;17.04;82.26
82305;BME280;71914;47.382;8.168;2023-09-12T05:27:22;96607.78;;;17.05;81.79
82305;BME280;71914;47.382;8.168;2023-09-12T05:29:48;96607.63;;;17.06;81.79
82305;BME280;71914;47.382;8.168;2023-09-12T05:32:13;96613.19;;;17.12;82.38
82305;BME280;71914;47.382;8.168;2023-09-12T05:34:41;96615.13;;;17.18;81.98
82305;BME280;71914;47.382;8.168;2023-09-12T05:37:06;96621.50;;;17.23;81.40
82305;BME280;71914;47.382;8.168;2023-09-12T05:39:32;96622.78;;;17.28;81.27
82305;BME280;71914;47.382;8.168;2023-09-12T05:41:57;96623.88;;;17.33;80.74
82305;BME280;71914;47.382;8.168;2023-09-12T05:44:24;96623.06;;;17.33;81.28
82305;BME280;71914;47.382;8.168;2023-09-12T05:46:49;96622.69;;;17.36;80.93
82305;BME280;71914;47.382;8.168;2023-09-12T05:49:15;96628.25;;;17.41;81.23
82305;BME280;71914;47.382;8.168;2023-09-12T05:51:41;96631.00;;;17.48;80.77
82305;BME280;71914;47.382;8.168;2023-09-12T05:54:07;96626.63;;;17.55;80.78
82305;BME280;71914;47.382;8.168;2023-09-12T05:56:33;96629.34;;;17.62;80.07
82305;BME280;71914;47.382;8.168;2023-09-12T05:58:59;96629.81;;;17.65;80.50
82305;BME280;71914;47.382;8.168;2023-09-12T06:01:25;96629.06;;;17.71;80.23
82305;BME280;71914;47.382;8.168;2023-09-12T06:03:51;96636.84;;;17.73;80.43
82305;BME280;71914;47.382;8.168;2023-09-12T06:06:17;96636.53;;;17.83;79.68
82305;BME280;71914;47.382;8.168;2023-09-12T06:08:42;96634.16;;;17.88;79.91
82305;BME280;71914;47.382;8.168;2023-09-12T06:11:08;96634.25;;;17.95;80.11
82305;BME280;71914;47.382;8.168;2023-09-12T06:13:33;96631.56;;;18.09;79.29
82305;BME280;71914;47.382;8.168;2023-09-12T06:16:00;96636.78;;;18.18;79.81
82305;BME280;71914;47.382;8.168;2023-09-12T06:18:27;96639.75;;;18.30;79.50
82305;BME280;71914;47.382;8.168;2023-09-12T06:20:55;96635.97;;;18.39;78.87
82305;BME280;71914;47.382;8.168;2023-09-12T06:23:20;96631.53;;;18.46;78.51
82305;BME280;71914;47.382;8.168;2023-09-12T06:25:46;96630.84;;;18.59;77.81
82305;BME280;71914;47.382;8.168;2023-09-12T06:28:11;96638.06;;;18.65;77.83
82305;BME280;71914;47.382;8.168;2023-09-12T06:30:37;96633.25;;;18.75;78.33
82305;BME280;71914;47.382;8.168;2023-09-12T06:33:03;96633.75;;;18.86;77.78
82305;BME280;71914;47.382;8.168;2023-09-12T06:35:31;96634.06;;;18.98;76.40
82305;BME280;71914;47.382;8.168;2023-09-12T06:37:57;96625.13;;;19.05;74.10
82305;BME280;71914;47.382;8.168;2023-09-12T06:40:22;96628.75;;;18.98;74.00
82305;BME280;71914;47.382;8.168;2023-09-12T06:42:48;96621.22;;;19.01;74.73
82305;BME280;71914;47.382;8.168;2023-09-12T06:45:13;96619.91;;;18.90;73.88
82305;BME280;71914;47.382;8.168;2023-09-12T06:47:39;96621.19;;;18.73;73.49
82305;BME280;71914;47.382;8.168;2023-09-12T06:50:05;96624.78;;;18.65;75.23
82305;BME280;71914;47.382;8.168;2023-09-12T06:52:32;96625.72;;;18.57;74.21
82305;BME280;71914;47.382;8.168;2023-09-12T06:54:58;96620.63;;;18.56;74.93
82305;BME280;71914;47.382;8.168;2023-09-12T06:57:23;96629.34;;;18.50;75.52
82305;BME280;71914;47.382;8.168;2023-09-12T06:59:49;96626.69;;;18.50;74.95
82305;BME280;71914;47.382;8.168;2023-09-12T07:02:14;96633.63;;;18.51;74.59
82305;BME280;71914;47.382;8.168;2023-09-12T07:04:40;96635.91;;;18.54;74.62
82305;BME280;71914;47.382;8.168;2023-09-12T07:07:05;96634.81;;;18.70;75.18
82305;BME280;71914;47.382;8.168;2023-09-12T07:09:32;96635.69;;;18.77;73.84
82305;BME280;71914;47.382;8.168;2023-09-12T07:11:58;96644.06;;;18.74;73.76
82305;BME280;71914;47.382;8.168;2023-09-12T07:14:24;96636.66;;;18.91;74.88
82305;BME280;71914;47.382;8.168;2023-09-12T07:16:50;96644.09;;;19.02;72.72
82305;BME280;71914;47.382;8.168;2023-09-12T07:19:16;96646.28;;;19.20;72.00
82305;BME280;71914;47.382;8.168;2023-09-12T07:21:41;96644.06;;;19.24;74.05
82305;BME280;71914;47.382;8.168;2023-09-12T07:24:07;96644.38;;;19.43;73.11
82305;BME280;71914;47.382;8.168;2023-09-12T07:26:34;96645.78;;;19.38;72.98
82305;BME280;71914;47.382;8.168;2023-09-12T07:29:00;96644.22;;;19.51;72.65
82305;BME280;71914;47.382;8.168;2023-09-12T07:31:28;96641.03;;;19.69;72.85
82305;BME280;71914;47.382;8.168;2023-09-12T07:33:53;96640.75;;;19.92;72.00
82305;BME280;71914;47.382;8.168;2023-09-12T07:36:19;96643.06;;;20.09;70.73
82305;BME280;71914;47.382;8.168;2023-09-12T07:38:44;96646.53;;;20.09;69.38
82305;BME280;71914;47.382;8.168;2023-09-12T07:41:10;96650.84;;;20.10;70.09
82305;BME280;71914;47.382;8.168;2023-09-12T07:43:37;96650.25;;;20.15;70.31
82305;BME280;71914;47.382;8.168;2023-09-12T07:46:03;96646.75;;;20.14;70.52
82305;BME280;71914;47.382;8.168;2023-09-12T07:48:28;96647.41;;;20.23;70.20
82305;BME280;71914;47.382;8.168;2023-09-12T07:50:54;96647.06;;;20.39;70.17
82305;BME280;71914;47.382;8.168;2023-09-12T07:53:20;96638.25;;;20.46;68.89
82305;BME280;71914;47.382;8.168;2023-09-12T07:55:45;96645.00;;;20.42;68.50
82305;BME280;71914;47.382;8.168;2023-09-12T07:58:12;96644.41;;;20.53;67.69
82305;BME280;71914;47.382;8.168;2023-09-12T08:00:39;96645.44;;;20.59;68.23
82305;BME280;71914;47.382;8.168;2023-09-12T08:03:05;96646.44;;;20.64;68.73
82305;BME280;71914;47.382;8.168;2023-09-12T08:05:30;96652.41;;;20.66;67.28
82305;BME280;71914;47.382;8.168;2023-09-12T08:07:56;96642.19;;;20.63;67.50
82305;BME280;71914;47.382;8.168;2023-09-12T08:10:21;96640.75;;;20.67;67.78
82305;BME280;71914;47.382;8.168;2023-09-12T08:12:47;96631.53;;;20.63;67.61
82305;BME280;71914;47.382;8.168;2023-09-12T08:15:12;96634.00;;;20.71;68.18
82305;BME280;71914;47.382;8.168;2023-09-12T08:17:39;96640.97;;;20.79;67.48
82305;BME280;71914;47.382;8.168;2023-09-12T08:20:06;96641.78;;;20.86;66.75
82305;BME280;71914;47.382;8.168;2023-09-12T08:22:35;96658.41;;;21.02;66.97
82305;BME280;71914;47.382;8.168;2023-09-12T08:25:00;96648.31;;;21.31;65.73
82305;BME280;71914;47.382;8.168;2023-09-12T08:27:26;96646.06;;;21.34;65.56
82305;BME280;71914;47.382;8.168;2023-09-12T08:29:52;96641.75;;;21.40;65.63
82305;BME280;71914;47.382;8.168;2023-09-12T08:32:17;96643.19;;;21.56;65.67
82305;BME280;71914;47.382;8.168;2023-09-12T08:34:45;96646.88;;;21.62;65.60
82305;BME280;71914;47.382;8.168;2023-09-12T08:37:10;96643.75;;;21.71;65.71
82305;BME280;71914;47.382;8.168;2023-09-12T08:39:43;96636.94;;;21.82;65.36
82305;BME280;71914;47.382;8.168;2023-09-12T08:42:12;96644.38;;;21.74;64.20
82305;BME280;71914;47.382;8.168;2023-09-12T08:44:38;96642.94;;;21.71;64.77
82305;BME280;71914;47.382;8.168;2023-09-12T08:47:04;96643.75;;;21.71;65.56
82305;BME280;71914;47.382;8.168;2023-09-12T08:49:33;96636.75;;;21.77;64.65
82305;BME280;71914;47.382;8.168;2023-09-12T08:52:01;96638.97;;;21.87;64.46
82305;BME280;71914;47.382;8.168;2023-09-12T08:54:27;96636.31;;;21.87;64.36
82305;BME280;71914;47.382;8.168;2023-09-12T08:56:54;96634.88;;;21.91;64.10
82305;BME280;71914;47.382;8.168;2023-09-12T08:59:20;96631.75;;;21.94;64.66
82305;BME280;71914;47.382;8.168;2023-09-12T09:01:46;96635.78;;;22.10;64.26
82305;BME280;71914;47.382;8.168;2023-09-12T09:04:12;96633.28;;;22.22;63.88
82305;BME280;71914;47.382;8.168;2023-09-12T09:06:40;96640.22;;;22.36;63.63
82305;BME280;71914;47.382;8.168;2023-09-12T09:09:09;96639.78;;;22.40;63.19
82305;BME280;71914;47.382;8.168;2023-09-12T09:11:35;96642.63;;;22.45;63.67
82305;BME280;71914;47.382;8.168;2023-09-12T09:14:01;96635.03;;;22.42;62.78
82305;BME280;71914;47.382;8.168;2023-09-12T09:16:28;96634.00;;;22.43;62.44
82305;BME280;71914;47.382;8.168;2023-09-12T09:18:54;96631.50;;;22.48;62.61
82305;BME280;71914;47.382;8.168;2023-09-12T09:21:21;96630.50;;;22.74;63.50
82305;BME280;71914;47.382;8.168;2023-09-12T09:23:50;96630.63;;;22.86;61.58
82305;BME280;71914;47.382;8.168;2023-09-12T09:26:17;96635.09;;;22.92;61.63
82305;BME280;71914;47.382;8.168;2023-09-12T09:28:44;96630.41;;;23.13;60.10
82305;BME280;71914;47.382;8.168;2023-09-12T09:31:11;96633.28;;;23.18;59.90
82305;BME280;71914;47.382;8.168;2023-09-12T09:33:37;96628.66;;;23.25;59.98
82305;BME280;71914;47.382;8.168;2023-09-12T09:36:05;96628.31;;;23.40;59.91
82305;BME280;71914;47.382;8.168;2023-09-12T09:38:31;96627.19;;;23.66;57.56
82305;BME280;71914;47.382;8.168;2023-09-12T09:40:56;96627.28;;;23.78;59.15
82305;BME280;71914;47.382;8.168;2023-09-12T09:43:23;96630.31;;;23.82;57.22
82305;BME280;71914;47.382;8.168;2023-09-12T09:45:50;96630.63;;;23.74;57.74
82305;BME280;71914;47.382;8.168;2023-09-12T09:48:19;96623.66;;;23.73;57.71
82305;BME280;71914;47.382;8.168;2023-09-12T09:50:45;96625.50;;;23.72;57.34
82305;BME280;71914;47.382;8.168;2023-09-12T09:53:10;96624.53;;;23.85;56.27
82305;BME280;71914;47.382;8.168;2023-09-12T09:55:36;96619.63;;;24.00;56.23
82305;BME280;71914;47.382;8.168;2023-09-12T09:58:01;96620.06;;;24.16;55.19
82305;BME280;71914;47.382;8.168;2023-09-12T10:00:29;96616.38;;;24.29;55.40
82305;BME280;71914;47.382;8.168;2023-09-12T10:02:55;96617.69;;;24.38;54.21
82305;BME280;71914;47.382;8.168;2023-09-12T10:05:21;96608.53;;;24.46;54.67
82305;BME280;71914;47.382;8.168;2023-09-12T10:07:49;96604.66;;;24.72;54.11
82305;BME280;71914;47.382;8.168;2023-09-12T10:10:18;96595.91;;;24.77;53.66
82305;BME280;71914;47.382;8.168;2023-09-12T10:12:48;96601.97;;;24.84;52.50
82305;BME280;71914;47.382;8.168;2023-09-12T10:15:15;96603.16;;;24.88;52.51
82305;BME280;71914;47.382;8.168;2023-09-12T10:17:46;96595.72;;;24.90;52.18
82305;BME280;71914;47.382;8.168;2023-09-12T10:20:15;96599.06;;;24.85;51.87
82305;BME280;71914;47.382;8.168;2023-09-12T10:22:48;96591.88;;;24.86;52.28
82305;BME280;71914;47.382;8.168;2023-09-12T10:25:17;96588.13;;;24.99;51.75
82305;BME280;71914;47.382;8.168;2023-09-12T10:27:42;96585.00;;;25.02;51.45
82305;BME280;71914;47.382;8.168;2023-09-12T10:30:08;96581.34;;;25.08;51.97
82305;BME280;71914;47.382;8.168;2023-09-12T10:32:34;96574.94;;;25.21;50.00
82305;BME280;71914;47.382;8.168;2023-09-12T10:35:02;96577.25;;;25.29;49.69
82305;BME280;71914;47.382;8.168;2023-09-12T10:37:29;96574.72;;;25.34;49.12
82305;BME280;71914;47.382;8.168;2023-09-12T10:39:56;96581.69;;;25.47;48.62
82305;BME280;71914;47.382;8.168;2023-09-12T10:42:24;96576.06;;;25.61;49.19
82305;BME280;71914;47.382;8.168;2023-09-12T10:44:51;96578.88;;;25.66;47.98
82305;BME280;71914;47.382;8.168;2023-09-12T10:47:17;96573.56;;;25.83;48.29
82305;BME280;71914;47.382;8.168;2023-09-12T10:49:44;96570.28;;;25.93;46.60
82305;BME280;71914;47.382;8.168;2023-09-12T10:52:23;96572.13;;;26.04;47.39
82305;BME280;71914;47.382;8.168;2023-09-12T10:54:49;96571.41;;;26.09;45.88
82305;BME280;71914;47.382;8.168;2023-09-12T10:57:15;96572.91;;;26.33;46.18
82305;BME280;71914;47.382;8.168;2023-09-12T11:00:09;96562.84;;;26.58;44.29
82305;BME280;71914;47.382;8.168;2023-09-12T11:02:36;96556.81;;;26.50;43.45
82305;BME280;71914;47.382;8.168;2023-09-12T11:05:03;96554.91;;;26.17;43.15
82305;BME280;71914;47.382;8.168;2023-09-12T11:07:32;96558.81;;;26.26;43.45
82305;BME280;71914;47.382;8.168;2023-09-12T11:10:16;96547.44;;;26.19;45.08
82305;BME280;71914;47.382;8.168;2023-09-12T11:12:44;96547.44;;;26.19;44.18
82305;BME280;71914;47.382;8.168;2023-09-12T11:15:10;96549.97;;;26.26;44.30
82305;BME280;71914;47.382;8.168;2023-09-12T11:17:37;96552.06;;;26.24;44.64
82305;BME280;71914;47.382;8.168;2023-09-12T11:20:03;96562.09;;;26.28;44.70
82305;BME280;71914;47.382;8.168;2023-09-12T11:22:40;96553.72;;;26.42;44.90
82305;BME280;71914;47.382;8.168;2023-09-12T11:25:16;96553.41;;;26.55;44.50
82305;BME280;71914;47.382;8.168;2023-09-12T11:28:02;96550.88;;;26.65;43.56
82305;BME280;71914;47.382;8.168;2023-09-12T11:30:29;96548.63;;;26.74;43.44
82305;BME280;71914;47.382;8.168;2023-09-12T11:32:59;96540.72;;;26.84;43.82
82305;BME280;71914;47.382;8.168;2023-09-12T11:35:27;96541.34;;;26.92;42.82
82305;BME280;71914;47.382;8.168;2023-09-12T11:37:55;96534.78;;;26.82;42.83
82305;BME280;71914;47.382;8.168;2023-09-12T11:40:24;96543.78;;;26.93;42.58
82305;BME280;71914;47.382;8.168;2023-09-12T11:42:51;96543.31;;;26.96;42.38
82305;BME280;71914;47.382;8.168;2023-09-12T11:45:18;96537.44;;;26.99;43.19
82305;BME280;71914;47.382;8.168;2023-09-12T11:47:45;96536.75;;;27.09;41.12
82305;BME280;71914;47.382;8.168;2023-09-12T11:50:25;96531.72;;;27.13;40.53
82305;BME280;71914;47.382;8.168;2023-09-12T11:53:00;96537.22;;;27.23;39.81
82305;BME280;71914;47.382;8.168;2023-09-12T11:55:25;96537.69;;;27.37;40.30
82305;BME280;71914;47.382;8.168;2023-09-12T11:57:51;96526.84;;;27.49;39.79
82305;BME280;71914;47.382;8.168;2023-09-12T12:00:17;96537.78;;;27.64;39.07
82305;BME280;71914;47.382;8.168;2023-09-12T12:02:45;96533.06;;;27.77;40.08
82305;BME280;71914;47.382;8.168;2023-09-12T12:05:10;96526.28;;;27.96;40.55
82305;BME280;71914;47.382;8.168;2023-09-12T12:07:36;96532.66;;;28.12;40.42
82305;BME280;71914;47.382;8.168;2023-09-12T12:10:03;96535.72;;;28.21;38.65
82305;BME280;71914;47.382;8.168;2023-09-12T12:12:29;96534.13;;;28.25;38.65
82305;BME280;71914;47.382;8.168;2023-09-12T12:14:54;96530.91;;;28.28;38.07
82305;BME280;71914;47.382;8.168;2023-09-12T12:17:20;96521.25;;;28.32;37.59
82305;BME280;71914;47.382;8.168;2023-09-12T12:19:46;96529.38;;;28.38;37.65
82305;BME280;71914;47.382;8.168;2023-09-12T12:22:12;96507.88;;;28.43;38.22
82305;BME280;71914;47.382;8.168;2023-09-12T12:24:38;96511.25;;;28.60;38.53
82305;BME280;71914;47.382;8.168;2023-09-12T12:27:06;96511.59;;;28.69;37.50
82305;BME280;71914;47.382;8.168;2023-09-12T12:29:33;96507.84;;;28.70;37.95
82305;BME280;71914;47.382;8.168;2023-09-12T12:31:59;96507.41;;;28.56;38.75
82305;BME280;71914;47.382;8.168;2023-09-12T12:34:26;96500.88;;;28.47;38.06
82305;BME280;71914;47.382;8.168;2023-09-12T12:36:53;96492.25;;;28.45;37.99
82305;BME280;71914;47.382;8.168;2023-09-12T12:39:20;96490.09;;;28.47;39.02
82305;BME280;71914;47.382;8.168;2023-09-12T12:41:46;96489.66;;;28.55;39.14
82305;BME280;71914;47.382;8.168;2023-09-12T12:44:13;96495.22;;;28.81;38.28
82305;BME280;71914;47.382;8.168;2023-09-12T12:46:47;96495.38;;;29.07;38.66
82305;BME280;71914;47.382;8.168;2023-09-12T12:49:15;96497.41;;;29.32;38.72
82305;BME280;71914;47.382;8.168;2023-09-12T12:51:42;96501.28;;;29.52;36.57
82305;BME280;71914;47.382;8.168;2023-09-12T12:54:08;96495.34;;;29.55;37.18
82305;BME280;71914;47.382;8.168;2023-09-12T12:56:33;96498.88;;;29.55;36.33
82305;BME280;71914;47.382;8.168;2023-09-12T12:59:00;96492.91;;;29.53;35.92
82305;BME280;71914;47.382;8.168;2023-09-12T13:01:30;96498.56;;;29.46;36.37